sensor_id;sensor_type;location;lat;lon;timestamp;temperature;humidity
38941;DHT22;43236;47.208;7.518;2023-05-10T00:02:31;16.50;99.90
38941;DHT22;43236;47.208;7.518;2023-05-10T00:05:18;15.70;99.90
38941;DHT22;43236;47.208;7.518;2023-05-10T00:08:05;17.00;99.90
38941;DHT22;43236;47.208;7.518;2023-05-10T00:10:51;17.30;99.90
38941;DHT22;43236;47.208;7.518;2023-05-10T00:13:39;15.60;99.90
38941;DHT22;43236;47.208;7.518;2023-05-10T00:16:27;17.60;99.90
38941;DHT22;43236;47.208;7.518;2023-05-10T00:19:14;15.90;99.90
38941;DHT22;43236;47.208;7.518;2023-05-10T00:22:01;16.10;99.90
38941;DHT22;43236;47.208;7.518;2023-05-10T00:24:48;16.50;99.90
38941;DHT22;43236;47.208;7.518;2023-05-10T00:27:35;16.60;99.90
38941;DHT22;43236;47.208;7.518;2023-05-10T00:30:22;15.80;99.90
38941;DHT22;43236;47.208;7.518;2023-05-10T00:33:10;17.10;99.90
38941;DHT22;43236;47.208;7.518;2023-05-10T00:35:58;15.50;99.90
38941;DHT22;43236;47.208;7.518;2023-05-10T00:38:44;16.80;99.90
38941;DHT22;43236;47.208;7.518;2023-05-10T00:41:31;16.60;99.90
38941;DHT22;43236;47.208;7.518;2023-05-10T00:44:18;17.70;99.90
38941;DHT22;43236;47.208;7.518;2023-05-10T00:47:05;16.00;99.90
38941;DHT22;43236;47.208;7.518;2023-05-10T00:49:53;17.00;99.90
38941;DHT22;43236;47.208;7.518;2023-05-10T00:52:41;15.80;99.90
38941;DHT22;43236;47.208;7.518;2023-05-10T00:55:28;16.20;99.90
38941;DHT22;43236;47.208;7.518;2023-05-10T00:58:16;15.80;99.90
38941;DHT22;43236;47.208;7.518;2023-05-10T01:01:03;15.70;99.90
38941;DHT22;43236;47.208;7.518;2023-05-10T01:03:51;16.90;99.90
38941;DHT22;43236;47.208;7.518;2023-05-10T01:06:39;16.50;99.90
38941;DHT22;43236;47.208;7.518;2023-05-10T01:09:26;16.60;99.90
38941;DHT22;43236;47.208;7.518;2023-05-10T01:12:14;17.10;99.90
38941;DHT22;43236;47.208;7.518;2023-05-10T01:15:01;15.40;99.90
38941;DHT22;43236;47.208;7.518;2023-05-10T01:17:48;15.70;99.90
38941;DHT22;43236;47.208;7.518;2023-05-10T01:20:36;16.60;99.90
38941;DHT22;43236;47.208;7.518;2023-05-10T01:23:42;15.40;99.90
38941;DHT22;43236;47.208;7.518;2023-05-10T01:29:47;15.80;99.90
38941;DHT22;43236;47.208;7.518;2023-05-10T01:32:44;17.20;99.90
38941;DHT22;43236;47.208;7.518;2023-05-10T01:35:37;16.00;99.90
38941;DHT22;43236;47.208;7.518;2023-05-10T01:38:26;16.00;99.90
38941;DHT22;43236;47.208;7.518;2023-05-10T01:41:16;16.30;99.90
38941;DHT22;43236;47.208;7.518;2023-05-10T01:44:05;16.60;99.90
38941;DHT22;43236;47.208;7.518;2023-05-10T01:46:56;16.20;99.90
38941;DHT22;43236;47.208;7.518;2023-05-10T01:49:47;16.60;99.90
38941;DHT22;43236;47.208;7.518;2023-05-10T01:52:36;15.70;99.90
38941;DHT22;43236;47.208;7.518;2023-05-10T01:55:25;16.20;99.90
38941;DHT22;43236;47.208;7.518;2023-05-10T01:58:15;16.70;99.90
38941;DHT22;43236;47.208;7.518;2023-05-10T02:01:03;17.50;99.90
38941;DHT22;43236;47.208;7.518;2023-05-10T02:03:50;15.90;99.90
38941;DHT22;43236;47.208;7.518;2023-05-10T02:06:39;17.60;99.90
38941;DHT22;43236;47.208;7.518;2023-05-10T02:09:26;16.80;99.90
38941;DHT22;43236;47.208;7.518;2023-05-10T02:12:14;16.40;99.90
38941;DHT22;43236;47.208;7.518;2023-05-10T02:15:02;15.90;99.90
38941;DHT22;43236;47.208;7.518;2023-05-10T02:17:50;15.30;99.90
38941;DHT22;43236;47.208;7.518;2023-05-10T02:20:39;15.60;99.90
38941;DHT22;43236;47.208;7.518;2023-05-10T02:23:27;15.30;99.90
38941;DHT22;43236;47.208;7.518;2023-05-10T02:26:14;16.00;99.90
38941;DHT22;43236;47.208;7.518;2023-05-10T02:29:02;17.20;99.90
38941;DHT22;43236;47.208;7.518;2023-05-10T02:31:50;15.20;99.90
38941;DHT22;43236;47.208;7.518;2023-05-10T02:34:38;15.80;99.90
38941;DHT22;43236;47.208;7.518;2023-05-10T02:37:25;15.90;99.90
38941;DHT22;43236;47.208;7.518;2023-05-10T02:40:14;16.80;99.90
38941;DHT22;43236;47.208;7.518;2023-05-10T02:43:02;16.00;99.90
38941;DHT22;43236;47.208;7.518;2023-05-10T02:45:49;16.00;99.90
38941;DHT22;43236;47.208;7.518;2023-05-10T02:48:36;14.90;99.90
38941;DHT22;43236;47.208;7.518;2023-05-10T02:51:24;15.50;99.90
38941;DHT22;43236;47.208;7.518;2023-05-10T02:54:12;15.30;99.90
38941;DHT22;43236;47.208;7.518;2023-05-10T02:57:04;15.50;99.90
38941;DHT22;43236;47.208;7.518;2023-05-10T02:59:51;16.60;99.90
38941;DHT22;43236;47.208;7.518;2023-05-10T03:02:38;16.40;99.90
38941;DHT22;43236;47.208;7.518;2023-05-10T03:05:24;16.20;99.90
38941;DHT22;43236;47.208;7.518;2023-05-10T03:08:11;16.20;99.90
38941;DHT22;43236;47.208;7.518;2023-05-10T03:11:02;15.60;99.90
38941;DHT22;43236;47.208;7.518;2023-05-10T03:13:56;16.50;99.90
38941;DHT22;43236;47.208;7.518;2023-05-10T03:19:35;15.50;99.90
38941;DHT22;43236;47.208;7.518;2023-05-10T03:22:28;14.80;99.90
38941;DHT22;43236;47.208;7.518;2023-05-10T03:25:17;15.80;99.90
38941;DHT22;43236;47.208;7.518;2023-05-10T03:28:05;15.30;99.90
38941;DHT22;43236;47.208;7.518;2023-05-10T03:30:53;15.60;99.90
38941;DHT22;43236;47.208;7.518;2023-05-10T03:33:45;15.00;99.90
38941;DHT22;43236;47.208;7.518;2023-05-10T03:36:32;15.30;99.90
38941;DHT22;43236;47.208;7.518;2023-05-10T03:39:19;16.50;99.90
38941;DHT22;43236;47.208;7.518;2023-05-10T03:42:06;15.60;99.90
38941;DHT22;43236;47.208;7.518;2023-05-10T03:44:53;15.70;99.90
38941;DHT22;43236;47.208;7.518;2023-05-10T03:47:42;16.40;99.90
38941;DHT22;43236;47.208;7.518;2023-05-10T03:50:28;15.20;99.90
38941;DHT22;43236;47.208;7.518;2023-05-10T03:53:15;15.70;99.90
38941;DHT22;43236;47.208;7.518;2023-05-10T03:56:02;15.90;99.90
38941;DHT22;43236;47.208;7.518;2023-05-10T03:58:49;17.10;99.90
38941;DHT22;43236;47.208;7.518;2023-05-10T04:01:36;15.40;99.90
38941;DHT22;43236;47.208;7.518;2023-05-10T04:07:11;15.90;99.90
38941;DHT22;43236;47.208;7.518;2023-05-10T04:09:59;15.20;99.90
38941;DHT22;43236;47.208;7.518;2023-05-10T04:12:45;15.90;99.90
38941;DHT22;43236;47.208;7.518;2023-05-10T04:15:32;15.90;99.90
38941;DHT22;43236;47.208;7.518;2023-05-10T04:18:19;15.70;99.90
38941;DHT22;43236;47.208;7.518;2023-05-10T04:21:10;15.20;99.90
38941;DHT22;43236;47.208;7.518;2023-05-10T04:23:58;15.40;99.90
38941;DHT22;43236;47.208;7.518;2023-05-10T04:26:45;15.20;99.90
38941;DHT22;43236;47.208;7.518;2023-05-10T04:29:32;14.20;99.90
38941;DHT22;43236;47.208;7.518;2023-05-10T04:32:19;16.50;99.90
38941;DHT22;43236;47.208;7.518;2023-05-10T04:35:06;15.90;99.90
38941;DHT22;43236;47.208;7.518;2023-05-10T04:37:53;15.70;99.90
38941;DHT22;43236;47.208;7.518;2023-05-10T04:40:41;15.80;99.90
38941;DHT22;43236;47.208;7.518;2023-05-10T04:43:28;15.00;99.90
38941;DHT22;43236;47.208;7.518;2023-05-10T04:46:15;15.40;99.90
38941;DHT22;43236;47.208;7.518;2023-05-10T04:49:02;15.40;99.90
38941;DHT22;43236;47.208;7.518;2023-05-10T04:51:49;16.20;99.90
38941;DHT22;43236;47.208;7.518;2023-05-10T04:54:36;15.50;99.90
38941;DHT22;43236;47.208;7.518;2023-05-10T04:57:24;15.00;99.90
38941;DHT22;43236;47.208;7.518;2023-05-10T05:00:11;15.70;99.90
38941;DHT22;43236;47.208;7.518;2023-05-10T05:02:58;16.20;99.90
38941;DHT22;43236;47.208;7.518;2023-05-10T05:05:45;15.50;99.90
38941;DHT22;43236;47.208;7.518;2023-05-10T05:08:32;16.60;99.90
38941;DHT22;43236;47.208;7.518;2023-05-10T05:11:19;14.60;99.90
38941;DHT22;43236;47.208;7.518;2023-05-10T05:14:07;15.90;99.90
38941;DHT22;43236;47.208;7.518;2023-05-10T05:16:54;16.30;99.90
38941;DHT22;43236;47.208;7.518;2023-05-10T05:22:29;15.80;99.90
38941;DHT22;43236;47.208;7.518;2023-05-10T05:25:16;15.50;99.90
38941;DHT22;43236;47.208;7.518;2023-05-10T05:28:03;15.50;99.90
38941;DHT22;43236;47.208;7.518;2023-05-10T05:30:51;15.30;99.90
38941;DHT22;43236;47.208;7.518;2023-05-10T05:33:38;16.10;99.90
38941;DHT22;43236;47.208;7.518;2023-05-10T05:36:25;15.20;99.90
38941;DHT22;43236;47.208;7.518;2023-05-10T05:39:12;15.90;99.90
38941;DHT22;43236;47.208;7.518;2023-05-10T05:41:59;15.40;99.90
38941;DHT22;43236;47.208;7.518;2023-05-10T05:44:46;14.90;99.90
38941;DHT22;43236;47.208;7.518;2023-05-10T05:47:34;15.80;99.90
38941;DHT22;43236;47.208;7.518;2023-05-10T05:50:24;15.00;99.90
38941;DHT22;43236;47.208;7.518;2023-05-10T05:53:11;14.40;99.90
38941;DHT22;43236;47.208;7.518;2023-05-10T05:55:58;14.40;99.90
38941;DHT22;43236;47.208;7.518;2023-05-10T05:58:45;13.70;99.90
38941;DHT22;43236;47.208;7.518;2023-05-10T06:01:33;14.50;99.90
38941;DHT22;43236;47.208;7.518;2023-05-10T06:04:21;14.40;99.90
38941;DHT22;43236;47.208;7.518;2023-05-10T06:07:08;14.50;99.90
38941;DHT22;43236;47.208;7.518;2023-05-10T06:09:55;14.70;99.90
38941;DHT22;43236;47.208;7.518;2023-05-10T06:12:42;14.80;99.90
38941;DHT22;43236;47.208;7.518;2023-05-10T06:15:29;15.10;99.90
38941;DHT22;43236;47.208;7.518;2023-05-10T06:18:15;15.40;99.90
38941;DHT22;43236;47.208;7.518;2023-05-10T06:21:04;14.40;99.90
38941;DHT22;43236;47.208;7.518;2023-05-10T06:23:51;14.80;99.90
38941;DHT22;43236;47.208;7.518;2023-05-10T06:26:38;14.60;99.90
38941;DHT22;43236;47.208;7.518;2023-05-10T06:32:12;14.50;99.90
38941;DHT22;43236;47.208;7.518;2023-05-10T06:34:59;14.70;99.90
38941;DHT22;43236;47.208;7.518;2023-05-10T06:37:47;14.50;99.90
38941;DHT22;43236;47.208;7.518;2023-05-10T06:40:34;15.10;99.90
38941;DHT22;43236;47.208;7.518;2023-05-10T06:43:21;14.70;99.90
38941;DHT22;43236;47.208;7.518;2023-05-10T06:46:08;14.70;99.90
38941;DHT22;43236;47.208;7.518;2023-05-10T06:48:55;15.20;99.90
38941;DHT22;43236;47.208;7.518;2023-05-10T06:51:42;14.40;99.90
38941;DHT22;43236;47.208;7.518;2023-05-10T06:54:30;15.40;99.90
38941;DHT22;43236;47.208;7.518;2023-05-10T06:57:17;15.40;99.90
38941;DHT22;43236;47.208;7.518;2023-05-10T07:00:05;14.80;99.90
38941;DHT22;43236;47.208;7.518;2023-05-10T07:02:52;15.40;99.90
38941;DHT22;43236;47.208;7.518;2023-05-10T07:05:39;14.00;99.90
38941;DHT22;43236;47.208;7.518;2023-05-10T07:08:26;15.40;99.90
38941;DHT22;43236;47.208;7.518;2023-05-10T07:11:14;15.10;99.90
38941;DHT22;43236;47.208;7.518;2023-05-10T07:14:01;15.70;99.90
38941;DHT22;43236;47.208;7.518;2023-05-10T07:16:48;15.60;99.90
38941;DHT22;43236;47.208;7.518;2023-05-10T07:19:35;15.10;99.90
38941;DHT22;43236;47.208;7.518;2023-05-10T07:22:22;15.60;99.90
38941;DHT22;43236;47.208;7.518;2023-05-10T07:25:09;14.40;99.90
38941;DHT22;43236;47.208;7.518;2023-05-10T07:27:57;15.90;99.90
38941;DHT22;43236;47.208;7.518;2023-05-10T07:30:44;16.60;99.90
38941;DHT22;43236;47.208;7.518;2023-05-10T07:33:31;16.00;99.90
38941;DHT22;43236;47.208;7.518;2023-05-10T07:36:18;15.60;99.90
38941;DHT22;43236;47.208;7.518;2023-05-10T07:39:05;15.70;99.90
38941;DHT22;43236;47.208;7.518;2023-05-10T07:41:52;15.20;99.90
38941;DHT22;43236;47.208;7.518;2023-05-10T07:44:40;15.40;99.90
38941;DHT22;43236;47.208;7.518;2023-05-10T07:47:27;16.30;99.90
38941;DHT22;43236;47.208;7.518;2023-05-10T07:50:14;16.80;99.90
38941;DHT22;43236;47.208;7.518;2023-05-10T07:53:01;16.50;99.90
38941;DHT22;43236;47.208;7.518;2023-05-10T07:55:49;17.30;99.90
38941;DHT22;43236;47.208;7.518;2023-05-10T07:58:37;15.90;99.90
38941;DHT22;43236;47.208;7.518;2023-05-10T08:01:25;16.80;99.90
38941;DHT22;43236;47.208;7.518;2023-05-10T08:04:12;17.80;99.90
38941;DHT22;43236;47.208;7.518;2023-05-10T08:06:59;17.20;99.90
38941;DHT22;43236;47.208;7.518;2023-05-10T08:09:46;18.20;99.90
38941;DHT22;43236;47.208;7.518;2023-05-10T08:12:33;16.20;99.70
38941;DHT22;43236;47.208;7.518;2023-05-10T08:15:20;17.90;99.90
38941;DHT22;43236;47.208;7.518;2023-05-10T08:18:08;16.60;99.90
38941;DHT22;43236;47.208;7.518;2023-05-10T08:20:55;18.40;99.90
38941;DHT22;43236;47.208;7.518;2023-05-10T08:23:42;16.40;99.40
38941;DHT22;43236;47.208;7.518;2023-05-10T08:26:30;18.40;99.10
38941;DHT22;43236;47.208;7.518;2023-05-10T08:29:17;17.80;98.40
38941;DHT22;43236;47.208;7.518;2023-05-10T08:32:04;18.40;99.40
38941;DHT22;43236;47.208;7.518;2023-05-10T08:34:52;18.50;98.50
38941;DHT22;43236;47.208;7.518;2023-05-10T08:37:39;17.20;98.20
38941;DHT22;43236;47.208;7.518;2023-05-10T08:40:26;17.30;96.40
38941;DHT22;43236;47.208;7.518;2023-05-10T08:43:13;18.10;96.80
38941;DHT22;43236;47.208;7.518;2023-05-10T08:46:01;18.30;97.30
38941;DHT22;43236;47.208;7.518;2023-05-10T08:48:49;17.20;96.60
38941;DHT22;43236;47.208;7.518;2023-05-10T08:51:39;17.50;95.20
38941;DHT22;43236;47.208;7.518;2023-05-10T08:54:26;17.80;96.40
38941;DHT22;43236;47.208;7.518;2023-05-10T08:57:14;17.90;94.10
38941;DHT22;43236;47.208;7.518;2023-05-10T09:00:03;18.80;94.00
38941;DHT22;43236;47.208;7.518;2023-05-10T09:02:50;18.40;94.00
38941;DHT22;43236;47.208;7.518;2023-05-10T09:05:37;18.00;95.80
38941;DHT22;43236;47.208;7.518;2023-05-10T09:08:25;18.40;95.80
38941;DHT22;43236;47.208;7.518;2023-05-10T09:11:12;16.50;94.60
38941;DHT22;43236;47.208;7.518;2023-05-10T09:14:00;17.90;95.40
38941;DHT22;43236;47.208;7.518;2023-05-10T09:16:47;17.40;95.90
38941;DHT22;43236;47.208;7.518;2023-05-10T09:19:34;16.50;94.10
38941;DHT22;43236;47.208;7.518;2023-05-10T09:22:21;17.10;94.10
38941;DHT22;43236;47.208;7.518;2023-05-10T09:25:10;17.30;93.90
38941;DHT22;43236;47.208;7.518;2023-05-10T09:27:57;17.30;93.90
38941;DHT22;43236;47.208;7.518;2023-05-10T09:30:44;17.00;94.50
38941;DHT22;43236;47.208;7.518;2023-05-10T09:33:43;17.50;92.30
38941;DHT22;43236;47.208;7.518;2023-05-10T09:36:30;17.70;93.00
38941;DHT22;43236;47.208;7.518;2023-05-10T09:39:17;17.80;92.60
38941;DHT22;43236;47.208;7.518;2023-05-10T09:42:06;18.80;91.60
38941;DHT22;43236;47.208;7.518;2023-05-10T09:44:54;18.40;91.40
38941;DHT22;43236;47.208;7.518;2023-05-10T09:47:41;18.10;91.00
38941;DHT22;43236;47.208;7.518;2023-05-10T09:50:28;18.10;90.10
38941;DHT22;43236;47.208;7.518;2023-05-10T09:53:15;18.80;90.80
38941;DHT22;43236;47.208;7.518;2023-05-10T09:56:03;18.50;89.10
38941;DHT22;43236;47.208;7.518;2023-05-10T09:58:54;18.60;86.70
38941;DHT22;43236;47.208;7.518;2023-05-10T10:01:51;18.60;89.10
38941;DHT22;43236;47.208;7.518;2023-05-10T10:04:38;19.20;89.90
38941;DHT22;43236;47.208;7.518;2023-05-10T10:07:26;19.00;90.80
38941;DHT22;43236;47.208;7.518;2023-05-10T10:10:13;19.50;90.00
38941;DHT22;43236;47.208;7.518;2023-05-10T10:13:01;18.10;89.20
38941;DHT22;43236;47.208;7.518;2023-05-10T10:15:50;19.10;89.60
38941;DHT22;43236;47.208;7.518;2023-05-10T10:18:37;18.80;86.20
38941;DHT22;43236;47.208;7.518;2023-05-10T10:21:25;18.60;88.50
38941;DHT22;43236;47.208;7.518;2023-05-10T10:24:12;18.90;88.90
38941;DHT22;43236;47.208;7.518;2023-05-10T10:27:00;19.40;87.70
38941;DHT22;43236;47.208;7.518;2023-05-10T10:29:52;19.80;87.70
38941;DHT22;43236;47.208;7.518;2023-05-10T10:32:51;18.10;85.70
38941;DHT22;43236;47.208;7.518;2023-05-10T10:35:42;18.90;86.10
38941;DHT22;43236;47.208;7.518;2023-05-10T10:38:36;18.90;85.30
38941;DHT22;43236;47.208;7.518;2023-05-10T10:41:27;18.90;83.50
38941;DHT22;43236;47.208;7.518;2023-05-10T10:44:23;20.40;85.50
38941;DHT22;43236;47.208;7.518;2023-05-10T10:47:21;18.80;84.80
38941;DHT22;43236;47.208;7.518;2023-05-10T10:50:16;20.60;86.50
38941;DHT22;43236;47.208;7.518;2023-05-10T10:53:10;18.90;84.70
38941;DHT22;43236;47.208;7.518;2023-05-10T10:56:06;19.80;85.00
38941;DHT22;43236;47.208;7.518;2023-05-10T10:58:58;17.80;83.40
38941;DHT22;43236;47.208;7.518;2023-05-10T11:01:48;18.40;84.10
38941;DHT22;43236;47.208;7.518;2023-05-10T11:04:41;18.50;84.50
38941;DHT22;43236;47.208;7.518;2023-05-10T11:07:30;18.10;87.50
38941;DHT22;43236;47.208;7.518;2023-05-10T11:10:19;17.70;86.60
38941;DHT22;43236;47.208;7.518;2023-05-10T11:13:06;17.90;90.10
38941;DHT22;43236;47.208;7.518;2023-05-10T11:15:53;18.80;87.40
38941;DHT22;43236;47.208;7.518;2023-05-10T11:18:40;18.10;86.30
38941;DHT22;43236;47.208;7.518;2023-05-10T11:21:44;17.70;85.70
38941;DHT22;43236;47.208;7.518;2023-05-10T11:24:32;19.00;86.90
38941;DHT22;43236;47.208;7.518;2023-05-10T11:27:21;19.40;86.90
38941;DHT22;43236;47.208;7.518;2023-05-10T11:32:55;19.10;86.30
38941;DHT22;43236;47.208;7.518;2023-05-10T11:35:43;20.80;89.40
38941;DHT22;43236;47.208;7.518;2023-05-10T11:38:29;19.50;84.80
38941;DHT22;43236;47.208;7.518;2023-05-10T11:41:21;19.60;86.30
38941;DHT22;43236;47.208;7.518;2023-05-10T11:44:08;18.60;86.10
38941;DHT22;43236;47.208;7.518;2023-05-10T11:46:57;19.60;82.10
38941;DHT22;43236;47.208;7.518;2023-05-10T11:49:44;19.30;85.00
38941;DHT22;43236;47.208;7.518;2023-05-10T11:52:35;19.90;83.60
38941;DHT22;43236;47.208;7.518;2023-05-10T11:55:22;19.80;84.50
38941;DHT22;43236;47.208;7.518;2023-05-10T11:58:11;19.90;83.50
38941;DHT22;43236;47.208;7.518;2023-05-10T12:00:58;20.70;82.50
38941;DHT22;43236;47.208;7.518;2023-05-10T12:03:45;19.70;81.60
38941;DHT22;43236;47.208;7.518;2023-05-10T12:06:32;19.70;81.30
38941;DHT22;43236;47.208;7.518;2023-05-10T12:09:22;19.80;81.40
38941;DHT22;43236;47.208;7.518;2023-05-10T12:12:08;19.60;79.70
38941;DHT22;43236;47.208;7.518;2023-05-10T12:14:57;19.60;79.60
38941;DHT22;43236;47.208;7.518;2023-05-10T12:17:44;19.10;78.20
38941;DHT22;43236;47.208;7.518;2023-05-10T12:20:30;19.20;79.00
38941;DHT22;43236;47.208;7.518;2023-05-10T12:23:17;19.20;79.70
38941;DHT22;43236;47.208;7.518;2023-05-10T12:26:06;19.00;80.20
38941;DHT22;43236;47.208;7.518;2023-05-10T12:29:00;19.50;83.00
38941;DHT22;43236;47.208;7.518;2023-05-10T12:31:59;19.50;82.60
38941;DHT22;43236;47.208;7.518;2023-05-10T12:34:46;20.80;86.00
38941;DHT22;43236;47.208;7.518;2023-05-10T12:37:33;20.10;80.30
38941;DHT22;43236;47.208;7.518;2023-05-10T12:40:24;19.40;78.30
38941;DHT22;43236;47.208;7.518;2023-05-10T12:43:11;19.70;81.10
38941;DHT22;43236;47.208;7.518;2023-05-10T12:45:58;19.80;80.80
38941;DHT22;43236;47.208;7.518;2023-05-10T12:48:46;19.40;80.00
38941;DHT22;43236;47.208;7.518;2023-05-10T12:51:35;19.50;80.70
38941;DHT22;43236;47.208;7.518;2023-05-10T12:54:22;19.60;80.50
38941;DHT22;43236;47.208;7.518;2023-05-10T12:57:08;19.30;80.10
38941;DHT22;43236;47.208;7.518;2023-05-10T12:59:55;19.20;79.30
38941;DHT22;43236;47.208;7.518;2023-05-10T13:02:42;19.20;79.20
38941;DHT22;43236;47.208;7.518;2023-05-10T13:05:30;18.80;79.50
38941;DHT22;43236;47.208;7.518;2023-05-10T13:08:17;16.30;78.50
38941;DHT22;43236;47.208;7.518;2023-05-10T13:11:05;19.40;82.10
38941;DHT22;43236;47.208;7.518;2023-05-10T13:13:52;19.90;88.10
38941;DHT22;43236;47.208;7.518;2023-05-10T13:16:39;17.80;87.10
38941;DHT22;43236;47.208;7.518;2023-05-10T13:19:26;18.20;87.10
38941;DHT22;43236;47.208;7.518;2023-05-10T13:22:14;18.30;89.50
38941;DHT22;43236;47.208;7.518;2023-05-10T13:25:01;19.20;89.80
38941;DHT22;43236;47.208;7.518;2023-05-10T13:27:48;18.60;89.40
38941;DHT22;43236;47.208;7.518;2023-05-10T13:30:35;18.70;89.00
38941;DHT22;43236;47.208;7.518;2023-05-10T13:33:22;18.10;89.30
38941;DHT22;43236;47.208;7.518;2023-05-10T13:36:09;19.40;89.00
38941;DHT22;43236;47.208;7.518;2023-05-10T13:38:57;19.80;90.00
38941;DHT22;43236;47.208;7.518;2023-05-10T13:41:44;19.20;86.50
38941;DHT22;43236;47.208;7.518;2023-05-10T13:44:31;19.30;85.40
38941;DHT22;43236;47.208;7.518;2023-05-10T13:47:19;19.30;83.50
38941;DHT22;43236;47.208;7.518;2023-05-10T13:50:07;19.30;80.80
38941;DHT22;43236;47.208;7.518;2023-05-10T13:52:54;20.50;80.90
38941;DHT22;43236;47.208;7.518;2023-05-10T13:55:42;20.30;79.70
38941;DHT22;43236;47.208;7.518;2023-05-10T13:58:29;20.50;79.90
38941;DHT22;43236;47.208;7.518;2023-05-10T14:01:16;19.90;80.30
38941;DHT22;43236;47.208;7.518;2023-05-10T14:04:03;18.10;77.10
38941;DHT22;43236;47.208;7.518;2023-05-10T14:06:50;19.10;80.10
38941;DHT22;43236;47.208;7.518;2023-05-10T14:09:38;18.70;78.80
38941;DHT22;43236;47.208;7.518;2023-05-10T14:12:26;18.90;78.90
38941;DHT22;43236;47.208;7.518;2023-05-10T14:15:13;19.60;78.70
38941;DHT22;43236;47.208;7.518;2023-05-10T14:18:00;19.80;79.00
38941;DHT22;43236;47.208;7.518;2023-05-10T14:20:47;18.60;76.90
38941;DHT22;43236;47.208;7.518;2023-05-10T14:23:34;18.50;77.50
38941;DHT22;43236;47.208;7.518;2023-05-10T14:26:21;18.90;77.00
38941;DHT22;43236;47.208;7.518;2023-05-10T14:29:09;19.90;77.00
38941;DHT22;43236;47.208;7.518;2023-05-10T14:31:56;19.70;78.10
38941;DHT22;43236;47.208;7.518;2023-05-10T14:34:43;18.90;76.70
38941;DHT22;43236;47.208;7.518;2023-05-10T14:37:30;18.70;77.60
38941;DHT22;43236;47.208;7.518;2023-05-10T14:40:17;18.40;76.60
38941;DHT22;43236;47.208;7.518;2023-05-10T14:43:04;18.70;77.10
38941;DHT22;43236;47.208;7.518;2023-05-10T14:45:52;20.10;79.40
38941;DHT22;43236;47.208;7.518;2023-05-10T14:48:39;19.80;78.20
38941;DHT22;43236;47.208;7.518;2023-05-10T14:51:26;18.40;79.10
38941;DHT22;43236;47.208;7.518;2023-05-10T14:54:13;20.10;80.00
38941;DHT22;43236;47.208;7.518;2023-05-10T14:57:00;20.10;79.40
38941;DHT22;43236;47.208;7.518;2023-05-10T14:59:46;18.70;77.60
38941;DHT22;43236;47.208;7.518;2023-05-10T15:02:35;18.40;79.80
38941;DHT22;43236;47.208;7.518;2023-05-10T15:05:22;18.20;82.50
38941;DHT22;43236;47.208;7.518;2023-05-10T15:08:09;18.80;85.20
38941;DHT22;43236;47.208;7.518;2023-05-10T15:10:57;18.00;85.40
38941;DHT22;43236;47.208;7.518;2023-05-10T15:13:44;18.80;87.70
38941;DHT22;43236;47.208;7.518;2023-05-10T15:16:31;17.30;86.70
38941;DHT22;43236;47.208;7.518;2023-05-10T15:19:20;18.10;87.30
38941;DHT22;43236;47.208;7.518;2023-05-10T15:22:07;19.10;88.40
38941;DHT22;43236;47.208;7.518;2023-05-10T15:24:53;18.50;85.10
38941;DHT22;43236;47.208;7.518;2023-05-10T15:27:41;19.10;88.50
38941;DHT22;43236;47.208;7.518;2023-05-10T15:30:29;17.60;87.70
38941;DHT22;43236;47.208;7.518;2023-05-10T15:33:15;17.60;91.60
38941;DHT22;43236;47.208;7.518;2023-05-10T15:36:04;17.70;91.90
38941;DHT22;43236;47.208;7.518;2023-05-10T15:38:52;17.60;92.20
38941;DHT22;43236;47.208;7.518;2023-05-10T15:41:39;17.60;90.20
38941;DHT22;43236;47.208;7.518;2023-05-10T15:44:26;17.90;90.20
38941;DHT22;43236;47.208;7.518;2023-05-10T15:47:13;17.80;89.90
38941;DHT22;43236;47.208;7.518;2023-05-10T15:50:00;18.50;90.00
38941;DHT22;43236;47.208;7.518;2023-05-10T15:52:48;17.70;90.00
38941;DHT22;43236;47.208;7.518;2023-05-10T15:55:35;17.10;90.30
38941;DHT22;43236;47.208;7.518;2023-05-10T15:58:22;17.30;90.80
38941;DHT22;43236;47.208;7.518;2023-05-10T16:01:09;16.70;90.90
38941;DHT22;43236;47.208;7.518;2023-05-10T16:03:57;17.60;91.50
38941;DHT22;43236;47.208;7.518;2023-05-10T16:06:44;16.60;90.50
38941;DHT22;43236;47.208;7.518;2023-05-10T16:09:32;17.10;91.80
38941;DHT22;43236;47.208;7.518;2023-05-10T16:12:19;17.10;91.50
38941;DHT22;43236;47.208;7.518;2023-05-10T16:15:07;17.10;91.30
38941;DHT22;43236;47.208;7.518;2023-05-10T16:17:54;17.30;91.40
38941;DHT22;43236;47.208;7.518;2023-05-10T16:20:41;17.60;92.40
38941;DHT22;43236;47.208;7.518;2023-05-10T16:23:27;18.10;91.80
38941;DHT22;43236;47.208;7.518;2023-05-10T16:26:16;18.40;91.40
38941;DHT22;43236;47.208;7.518;2023-05-10T16:29:03;18.50;91.20
38941;DHT22;43236;47.208;7.518;2023-05-10T16:31:50;18.40;90.40
38941;DHT22;43236;47.208;7.518;2023-05-10T16:34:37;18.40;88.80
38941;DHT22;43236;47.208;7.518;2023-05-10T16:37:24;18.50;90.90
38941;DHT22;43236;47.208;7.518;2023-05-10T16:40:11;18.60;90.70
38941;DHT22;43236;47.208;7.518;2023-05-10T16:42:59;18.20;91.00
38941;DHT22;43236;47.208;7.518;2023-05-10T16:45:46;18.30;90.40
38941;DHT22;43236;47.208;7.518;2023-05-10T16:48:33;18.40;88.50
38941;DHT22;43236;47.208;7.518;2023-05-10T16:51:20;18.00;89.20
38941;DHT22;43236;47.208;7.518;2023-05-10T16:54:07;18.40;87.80
38941;DHT22;43236;47.208;7.518;2023-05-10T16:56:53;19.40;86.20
38941;DHT22;43236;47.208;7.518;2023-05-10T16:59:42;17.00;83.70
38941;DHT22;43236;47.208;7.518;2023-05-10T17:02:28;18.40;86.30
38941;DHT22;43236;47.208;7.518;2023-05-10T17:05:15;18.00;88.30
38941;DHT22;43236;47.208;7.518;2023-05-10T17:08:02;18.00;85.30
38941;DHT22;43236;47.208;7.518;2023-05-10T17:10:49;19.50;83.60
38941;DHT22;43236;47.208;7.518;2023-05-10T17:13:36;18.10;82.90
38941;DHT22;43236;47.208;7.518;2023-05-10T17:16:25;19.60;84.40
38941;DHT22;43236;47.208;7.518;2023-05-10T17:19:12;19.40;84.90
38941;DHT22;43236;47.208;7.518;2023-05-10T17:21:59;18.50;84.80
38941;DHT22;43236;47.208;7.518;2023-05-10T17:24:46;16.80;83.00
38941;DHT22;43236;47.208;7.518;2023-05-10T17:27:33;19.50;85.80
38941;DHT22;43236;47.208;7.518;2023-05-10T17:30:20;19.00;82.80
38941;DHT22;43236;47.208;7.518;2023-05-10T17:33:12;20.00;78.30
38941;DHT22;43236;47.208;7.518;2023-05-10T17:35:59;20.70;79.50
38941;DHT22;43236;47.208;7.518;2023-05-10T17:38:46;19.30;78.20
38941;DHT22;43236;47.208;7.518;2023-05-10T17:41:33;18.70;79.00
38941;DHT22;43236;47.208;7.518;2023-05-10T17:44:19;18.40;79.50
38941;DHT22;43236;47.208;7.518;2023-05-10T17:47:06;18.20;81.40
38941;DHT22;43236;47.208;7.518;2023-05-10T17:49:54;19.00;82.80
38941;DHT22;43236;47.208;7.518;2023-05-10T17:52:41;19.50;84.80
38941;DHT22;43236;47.208;7.518;2023-05-10T17:55:28;16.60;82.40
38941;DHT22;43236;47.208;7.518;2023-05-10T17:58:15;18.20;85.10